sensor_id;sensor_type;location;lat;lon;timestamp;pressure;altitude;pressure_sealevel;temperature;humidity
51239;BME280;38154;47.548;18.828;2023-01-28T00:02:06;98785.44;;;0.01;100.00
51239;BME280;38154;47.548;18.828;2023-01-28T00:04:31;98791.03;;;-0.08;100.00
51239;BME280;38154;47.548;18.828;2023-01-28T00:06:57;98790.25;;;-0.07;100.00
51239;BME280;38154;47.548;18.828;2023-01-28T00:09:23;98794.81;;;0.01;100.00
51239;BME280;38154;47.548;18.828;2023-01-28T00:11:48;98793.47;;;0.09;100.00
51239;BME280;38154;47.548;18.828;2023-01-28T00:14:14;98804.37;;;0.05;100.00
51239;BME280;38154;47.548;18.828;2023-01-28T00:16:40;98796.56;;;0.02;100.00
51239;BME280;38154;47.548;18.828;2023-01-28T00:19:05;98799.94;;;0.01;100.00
51239;BME280;38154;47.548;18.828;2023-01-28T00:21:31;98796.37;;;-0.03;100.00
51239;BME280;38154;47.548;18.828;2023-01-28T00:23:57;98806.81;;;0.02;100.00
51239;BME280;38154;47.548;18.828;2023-01-28T00:26:23;98802.97;;;0.11;100.00
51239;BME280;38154;47.548;18.828;2023-01-28T00:28:49;98810.84;;;-0.04;100.00
51239;BME280;38154;47.548;18.828;2023-01-28T00:33:41;98801.56;;;-0.02;100.00
51239;BME280;38154;47.548;18.828;2023-01-28T00:36:07;98806.78;;;0.00;100.00
51239;BME280;38154;47.548;18.828;2023-01-28T00:38:33;98806.81;;;0.02;100.00
51239;BME280;38154;47.548;18.828;2023-01-28T00:41:10;98803.09;;;-0.05;100.00
51239;BME280;38154;47.548;18.828;2023-01-28T00:43:36;98806.69;;;-0.02;100.00
51239;BME280;38154;47.548;18.828;2023-01-28T00:46:03;98802.03;;;-0.10;100.00
51239;BME280;38154;47.548;18.828;2023-01-28T00:48:28;98813.19;;;-0.10;100.00
51239;BME280;38154;47.548;18.828;2023-01-28T00:50:54;98812.97;;;-0.14;100.00
51239;BME280;38154;47.548;18.828;2023-01-28T00:53:21;98807.09;;;-0.12;100.00
51239;BME280;38154;47.548;18.828;2023-01-28T00:55:47;98807.28;;;-0.07;100.00
51239;BME280;38154;47.548;18.828;2023-01-28T00:58:12;98810.75;;;-0.07;100.00
51239;BME280;38154;47.548;18.828;2023-01-28T01:00:38;98816.75;;;-0.06;100.00
51239;BME280;38154;47.548;18.828;2023-01-28T01:03:04;98814.13;;;-0.08;100.00
51239;BME280;38154;47.548;18.828;2023-01-28T01:05:29;98812.09;;;-0.15;100.00
51239;BME280;38154;47.548;18.828;2023-01-28T01:07:55;98815.03;;;-0.25;100.00
51239;BME280;38154;47.548;18.828;2023-01-28T01:10:21;98812.28;;;-0.30;100.00
51239;BME280;38154;47.548;18.828;2023-01-28T01:12:47;98813.00;;;-0.32;100.00
51239;BME280;38154;47.548;18.828;2023-01-28T01:15:14;98818.06;;;-0.34;100.00
51239;BME280;38154;47.548;18.828;2023-01-28T01:17:40;98804.53;;;-0.31;100.00
51239;BME280;38154;47.548;18.828;2023-01-28T01:20:07;98820.78;;;-0.31;100.00
51239;BME280;38154;47.548;18.828;2023-01-28T01:22:34;98820.63;;;-0.34;100.00
51239;BME280;38154;47.548;18.828;2023-01-28T01:25:00;98819.22;;;-0.27;100.00
51239;BME280;38154;47.548;18.828;2023-01-28T01:27:26;98816.66;;;-0.27;100.00
51239;BME280;38154;47.548;18.828;2023-01-28T01:29:51;98813.44;;;-0.23;100.00
51239;BME280;38154;47.548;18.828;2023-01-28T01:32:17;98816.59;;;-0.29;100.00
51239;BME280;38154;47.548;18.828;2023-01-28T01:34:43;98811.69;;;-0.24;100.00
51239;BME280;38154;47.548;18.828;2023-01-28T01:37:08;98818.09;;;-0.14;100.00
51239;BME280;38154;47.548;18.828;2023-01-28T01:39:35;98818.09;;;-0.14;100.00
51239;BME280;38154;47.548;18.828;2023-01-28T01:42:01;98822.53;;;-0.10;100.00
51239;BME280;38154;47.548;18.828;2023-01-28T01:47:11;98826.44;;;0.01;100.00
51239;BME280;38154;47.548;18.828;2023-01-28T01:49:37;98826.66;;;0.06;100.00
51239;BME280;38154;47.548;18.828;2023-01-28T01:52:05;98826.31;;;-0.02;100.00
51239;BME280;38154;47.548;18.828;2023-01-28T01:54:33;98819.37;;;-0.05;100.00
51239;BME280;38154;47.548;18.828;2023-01-28T01:57:00;98825.81;;;0.07;100.00
51239;BME280;38154;47.548;18.828;2023-01-28T01:59:27;98824.09;;;0.06;100.00
51239;BME280;38154;47.548;18.828;2023-01-28T02:01:55;98825.78;;;0.05;100.00
51239;BME280;38154;47.548;18.828;2023-01-28T02:04:26;98825.22;;;-0.07;100.00
51239;BME280;38154;47.548;18.828;2023-01-28T02:06:53;98823.88;;;0.01;100.00
51239;BME280;38154;47.548;18.828;2023-01-28T02:09:29;98819.31;;;-0.06;100.00
51239;BME280;38154;47.548;18.828;2023-01-28T02:11:57;98813.69;;;0.03;100.00
51239;BME280;38154;47.548;18.828;2023-01-28T02:14:25;98827.47;;;0.05;100.00
51239;BME280;38154;47.548;18.828;2023-01-28T02:16:52;98821.94;;;-0.05;100.00
51239;BME280;38154;47.548;18.828;2023-01-28T02:19:18;98829.56;;;-0.06;100.00
51239;BME280;38154;47.548;18.828;2023-01-28T02:24:20;98815.53;;;0.05;100.00
51239;BME280;38154;47.548;18.828;2023-01-28T02:31:52;98822.16;;;0.00;100.00
51239;BME280;38154;47.548;18.828;2023-01-28T02:37:08;98819.31;;;-0.06;100.00
51239;BME280;38154;47.548;18.828;2023-01-28T02:39:39;98822.66;;;-0.07;100.00
51239;BME280;38154;47.548;18.828;2023-01-28T02:42:08;98824.09;;;-0.14;100.00
51239;BME280;38154;47.548;18.828;2023-01-28T02:44:36;98830.75;;;-0.17;100.00
51239;BME280;38154;47.548;18.828;2023-01-28T02:47:01;98825.38;;;-0.04;100.00
51239;BME280;38154;47.548;18.828;2023-01-28T02:49:50;98826.59;;;0.04;100.00
51239;BME280;38154;47.548;18.828;2023-01-28T02:58:04;98824.91;;;0.05;100.00
51239;BME280;38154;47.548;18.828;2023-01-28T03:00:55;98816.06;;;-0.02;100.00
51239;BME280;38154;47.548;18.828;2023-01-28T03:03:25;98821.25;;;-0.01;100.00
51239;BME280;38154;47.548;18.828;2023-01-28T03:05:57;98818.22;;;0.08;100.00
51239;BME280;38154;47.548;18.828;2023-01-28T03:08:32;98821.25;;;-0.01;100.00
51239;BME280;38154;47.548;18.828;2023-01-28T03:11:18;98825.59;;;0.01;100.00
51239;BME280;38154;47.548;18.828;2023-01-28T03:14:02;98828.28;;;0.04;100.00
51239;BME280;38154;47.548;18.828;2023-01-28T03:16:48;98821.47;;;0.04;100.00
51239;BME280;38154;47.548;18.828;2023-01-28T03:19:33;98828.00;;;-0.03;100.00
51239;BME280;38154;47.548;18.828;2023-01-28T03:22:17;98829.50;;;-0.08;100.00
51239;BME280;38154;47.548;18.828;2023-01-28T03:25:01;98821.66;;;-0.11;100.00
51239;BME280;38154;47.548;18.828;2023-01-28T03:27:50;98821.81;;;-0.08;100.00
51239;BME280;38154;47.548;18.828;2023-01-28T03:33:33;98816.59;;;-0.09;100.00
51239;BME280;38154;47.548;18.828;2023-01-28T03:36:18;98817.34;;;-0.12;100.00
51239;BME280;38154;47.548;18.828;2023-01-28T03:39:03;98821.53;;;-0.14;100.00
51239;BME280;38154;47.548;18.828;2023-01-28T03:41:28;98819.91;;;-0.12;100.00
51239;BME280;38154;47.548;18.828;2023-01-28T03:43:54;98821.38;;;-0.17;100.00
51239;BME280;38154;47.548;18.828;2023-01-28T03:46:20;98828.34;;;-0.14;100.00
51239;BME280;38154;47.548;18.828;2023-01-28T03:48:46;98828.81;;;-0.23;100.00
51239;BME280;38154;47.548;18.828;2023-01-28T03:51:12;98822.28;;;-0.16;100.00
51239;BME280;38154;47.548;18.828;2023-01-28T03:53:37;98825.63;;;-0.17;100.00
51239;BME280;38154;47.548;18.828;2023-01-28T03:56:04;98830.16;;;-0.12;100.00
51239;BME280;38154;47.548;18.828;2023-01-28T03:58:30;98827.41;;;-0.16;100.00
51239;BME280;38154;47.548;18.828;2023-01-28T04:01:17;98823.94;;;-0.17;100.00
51239;BME280;38154;47.548;18.828;2023-01-28T04:03:43;98832.03;;;-0.27;100.00
51239;BME280;38154;47.548;18.828;2023-01-28T04:06:09;98822.06;;;-0.21;100.00
51239;BME280;38154;47.548;18.828;2023-01-28T04:08:34;98831.56;;;-0.19;100.00
51239;BME280;38154;47.548;18.828;2023-01-28T04:11:00;98830.03;;;-0.15;100.00
51239;BME280;38154;47.548;18.828;2023-01-28T04:13:40;98834.25;;;-0.15;100.00
51239;BME280;38154;47.548;18.828;2023-01-28T04:16:06;98828.41;;;-0.13;100.00
51239;BME280;38154;47.548;18.828;2023-01-28T04:18:33;98825.91;;;-0.11;100.00
51239;BME280;38154;47.548;18.828;2023-01-28T04:20:59;98832.19;;;-0.05;100.00
51239;BME280;38154;47.548;18.828;2023-01-28T04:23:24;98834.53;;;-0.09;100.00
51239;BME280;38154;47.548;18.828;2023-01-28T04:25:50;98836.69;;;-0.19;100.00
51239;BME280;38154;47.548;18.828;2023-01-28T04:28:16;98837.78;;;-0.13;100.00
51239;BME280;38154;47.548;18.828;2023-01-28T04:30:42;98843.44;;;-0.21;100.00
51239;BME280;38154;47.548;18.828;2023-01-28T04:33:08;98838.44;;;-0.17;100.00
51239;BME280;38154;47.548;18.828;2023-01-28T04:35:33;98838.75;;;-0.11;100.00
51239;BME280;38154;47.548;18.828;2023-01-28T04:37:59;98844.81;;;-0.09;100.00
51239;BME280;38154;47.548;18.828;2023-01-28T04:40:24;98844.06;;;-0.07;100.00
51239;BME280;38154;47.548;18.828;2023-01-28T04:42:54;98852.69;;;-0.05;100.00
51239;BME280;38154;47.548;18.828;2023-01-28T04:45:20;98847.56;;;-0.05;100.00
51239;BME280;38154;47.548;18.828;2023-01-28T04:47:46;98853.19;;;-0.13;100.00
51239;BME280;38154;47.548;18.828;2023-01-28T04:50:11;98852.69;;;-0.05;100.00
51239;BME280;38154;47.548;18.828;2023-01-28T04:52:37;98853.84;;;0.02;100.00
51239;BME280;38154;47.548;18.828;2023-01-28T04:55:03;98863.81;;;-0.04;100.00
51239;BME280;38154;47.548;18.828;2023-01-28T04:57:29;98858.84;;;-0.01;100.00
51239;BME280;38154;47.548;18.828;2023-01-28T04:59:54;98855.25;;;-0.05;100.00
51239;BME280;38154;47.548;18.828;2023-01-28T05:02:20;98852.38;;;0.07;100.00
51239;BME280;38154;47.548;18.828;2023-01-28T05:04:45;98856.56;;;0.05;100.00
51239;BME280;38154;47.548;18.828;2023-01-28T05:07:11;98862.94;;;-0.05;100.00
51239;BME280;38154;47.548;18.828;2023-01-28T05:09:37;98859.44;;;-0.07;100.00
51239;BME280;38154;47.548;18.828;2023-01-28T05:12:03;98858.06;;;0.02;100.00
51239;BME280;38154;47.548;18.828;2023-01-28T05:14:28;98865.84;;;0.03;100.00
51239;BME280;38154;47.548;18.828;2023-01-28T05:16:54;98867.19;;;-0.05;100.00
51239;BME280;38154;47.548;18.828;2023-01-28T05:19:20;98865.59;;;-0.03;100.00
51239;BME280;38154;47.548;18.828;2023-01-28T05:21:45;98869.81;;;-0.04;100.00
51239;BME280;38154;47.548;18.828;2023-01-28T05:24:11;98876.84;;;0.01;100.00
51239;BME280;38154;47.548;18.828;2023-01-28T05:26:37;98884.62;;;0.02;100.00
51239;BME280;38154;47.548;18.828;2023-01-28T05:29:02;98886.34;;;0.03;100.00
51239;BME280;38154;47.548;18.828;2023-01-28T05:31:28;98884.25;;;-0.06;100.00
51239;BME280;38154;47.548;18.828;2023-01-28T05:33:54;98884.72;;;-0.14;100.00
51239;BME280;38154;47.548;18.828;2023-01-28T05:36:19;98884.94;;;-0.10;100.00
51239;BME280;38154;47.548;18.828;2023-01-28T05:38:45;98887.69;;;-0.05;100.00
51239;BME280;38154;47.548;18.828;2023-01-28T05:41:11;98887.91;;;-0.20;100.00
51239;BME280;38154;47.548;18.828;2023-01-28T05:43:36;98895.03;;;-0.13;100.00
51239;BME280;38154;47.548;18.828;2023-01-28T05:46:02;98897.69;;;-0.11;100.00
51239;BME280;38154;47.548;18.828;2023-01-28T05:48:28;98896.13;;;-0.08;100.00
51239;BME280;38154;47.548;18.828;2023-01-28T05:50:54;98894.81;;;-0.17;100.00
51239;BME280;38154;47.548;18.828;2023-01-28T05:53:19;98902.59;;;-0.16;100.00
51239;BME280;38154;47.548;18.828;2023-01-28T05:55:48;98897.53;;;-0.14;100.00
51239;BME280;38154;47.548;18.828;2023-01-28T05:58:14;98896.94;;;-0.09;100.00
51239;BME280;38154;47.548;18.828;2023-01-28T06:00:40;98900.09;;;-0.14;100.00
51239;BME280;38154;47.548;18.828;2023-01-28T06:03:06;98894.28;;;-0.10;100.00
51239;BME280;38154;47.548;18.828;2023-01-28T06:05:31;98890.31;;;-0.04;100.00
51239;BME280;38154;47.548;18.828;2023-01-28T06:07:58;98899.50;;;-0.09;100.00
51239;BME280;38154;47.548;18.828;2023-01-28T06:10:23;98896.06;;;-0.09;100.00
51239;BME280;38154;47.548;18.828;2023-01-28T06:12:49;98903.81;;;-0.08;100.00
51239;BME280;38154;47.548;18.828;2023-01-28T06:15:15;98913.13;;;-0.10;100.00
51239;BME280;38154;47.548;18.828;2023-01-28T06:17:40;98911.28;;;-0.12;100.00
51239;BME280;38154;47.548;18.828;2023-01-28T06:20:06;98911.44;;;-0.09;100.00
51239;BME280;38154;47.548;18.828;2023-01-28T06:22:33;98914.88;;;-0.09;100.00
51239;BME280;38154;47.548;18.828;2023-01-28T06:24:58;98913.28;;;-0.07;100.00
51239;BME280;38154;47.548;18.828;2023-01-28T06:27:24;98920.75;;;-0.11;100.00
51239;BME280;38154;47.548;18.828;2023-01-28T06:29:50;98918.44;;;-0.05;100.00
51239;BME280;38154;47.548;18.828;2023-01-28T06:32:15;98917.78;;;-0.01;100.00
51239;BME280;38154;47.548;18.828;2023-01-28T06:34:41;98933.03;;;-0.04;100.00
51239;BME280;38154;47.548;18.828;2023-01-28T06:37:07;98927.81;;;-0.06;100.00
51239;BME280;38154;47.548;18.828;2023-01-28T06:39:32;98929.44;;;-0.08;100.00
51239;BME280;38154;47.548;18.828;2023-01-28T06:41:58;98933.78;;;-0.07;100.00
51239;BME280;38154;47.548;18.828;2023-01-28T06:44:24;98929.31;;;-0.11;100.00
51239;BME280;38154;47.548;18.828;2023-01-28T06:46:50;98940.50;;;-0.09;100.00
51239;BME280;38154;47.548;18.828;2023-01-28T06:49:16;98936.91;;;-0.12;100.00
51239;BME280;38154;47.548;18.828;2023-01-28T06:51:41;98942.72;;;-0.16;100.00
51239;BME280;38154;47.548;18.828;2023-01-28T06:54:07;98943.59;;;-0.16;100.00
51239;BME280;38154;47.548;18.828;2023-01-28T06:56:33;98949.09;;;-0.08;100.00
51239;BME280;38154;47.548;18.828;2023-01-28T06:58:58;98946.72;;;-0.04;100.00
51239;BME280;38154;47.548;18.828;2023-01-28T07:01:24;98956.16;;;-0.03;100.00
51239;BME280;38154;47.548;18.828;2023-01-28T07:03:50;98958.00;;;0.00;100.00
51239;BME280;38154;47.548;18.828;2023-01-28T07:06:15;98956.47;;;0.04;100.00
51239;BME280;38154;47.548;18.828;2023-01-28T07:08:41;98955.63;;;0.05;100.00
51239;BME280;38154;47.548;18.828;2023-01-28T07:11:07;98962.91;;;-0.05;100.00
51239;BME280;38154;47.548;18.828;2023-01-28T07:13:33;98964.00;;;0.01;100.00
51239;BME280;38154;47.548;18.828;2023-01-28T07:15:59;98972.22;;;-0.07;100.00
51239;BME280;38154;47.548;18.828;2023-01-28T07:18:24;98970.69;;;-0.03;100.00
51239;BME280;38154;47.548;18.828;2023-01-28T07:20:50;98978.78;;;0.06;100.00
51239;BME280;38154;47.548;18.828;2023-01-28T07:23:16;98971.31;;;0.11;100.00
51239;BME280;38154;47.548;18.828;2023-01-28T07:25:41;98975.28;;;0.04;100.00
51239;BME280;38154;47.548;18.828;2023-01-28T07:28:07;98989.97;;;0.08;100.00
51239;BME280;38154;47.548;18.828;2023-01-28T07:30:33;98979.16;;;0.14;100.00
51239;BME280;38154;47.548;18.828;2023-01-28T07:32:58;98982.25;;;0.26;100.00
51239;BME280;38154;47.548;18.828;2023-01-28T07:35:24;98989.22;;;0.29;100.00
51239;BME280;38154;47.548;18.828;2023-01-28T07:37:51;98986.81;;;0.32;100.00
51239;BME280;38154;47.548;18.828;2023-01-28T07:40:17;98992.81;;;0.32;100.00
51239;BME280;38154;47.548;18.828;2023-01-28T07:42:43;98989.56;;;0.36;100.00
51239;BME280;38154;47.548;18.828;2023-01-28T07:45:09;98995.63;;;0.39;100.00
51239;BME280;38154;47.548;18.828;2023-01-28T07:47:34;98990.13;;;0.49;100.00
51239;BME280;38154;47.548;18.828;2023-01-28T07:50:00;98990.13;;;0.49;100.00
51239;BME280;38154;47.548;18.828;2023-01-28T07:52:26;98991.12;;;0.52;100.00
51239;BME280;38154;47.548;18.828;2023-01-28T07:54:51;98987.66;;;0.52;100.00
51239;BME280;38154;47.548;18.828;2023-01-28T07:57:17;98983.66;;;0.57;100.00
51239;BME280;38154;47.548;18.828;2023-01-28T07:59:48;98978.97;;;0.68;100.00
51239;BME280;38154;47.548;18.828;2023-01-28T08:02:15;98987.75;;;0.73;100.00
51239;BME280;38154;47.548;18.828;2023-01-28T08:04:41;98986.13;;;0.75;100.00
51239;BME280;38154;47.548;18.828;2023-01-28T08:07:06;98989.75;;;0.80;100.00
51239;BME280;38154;47.548;18.828;2023-01-28T08:09:32;98988.19;;;0.84;100.00
51239;BME280;38154;47.548;18.828;2023-01-28T08:12:01;98995.09;;;0.85;100.00
51239;BME280;38154;47.548;18.828;2023-01-28T08:14:27;99003.88;;;0.90;100.00
51239;BME280;38154;47.548;18.828;2023-01-28T08:16:53;99004.16;;;0.96;100.00
51239;BME280;38154;47.548;18.828;2023-01-28T08:19:18;99001.97;;;1.05;100.00
51239;BME280;38154;47.548;18.828;2023-01-28T08:21:46;99005.09;;;0.98;100.00
51239;BME280;38154;47.548;18.828;2023-01-28T08:24:12;99007.88;;;1.24;100.00
51239;BME280;38154;47.548;18.828;2023-01-28T08:26:37;99010.28;;;1.19;100.00
51239;BME280;38154;47.548;18.828;2023-01-28T08:29:03;99006.38;;;1.29;100.00
51239;BME280;38154;47.548;18.828;2023-01-28T08:31:29;99008.47;;;1.38;100.00
51239;BME280;38154;47.548;18.828;2023-01-28T08:33:55;99008.91;;;1.48;100.00
51239;BME280;38154;47.548;18.828;2023-01-28T08:36:21;99010.41;;;1.43;100.00
51239;BME280;38154;47.548;18.828;2023-01-28T08:38:50;99015.03;;;1.52;100.00
51239;BME280;38154;47.548;18.828;2023-01-28T08:41:18;99018.87;;;1.62;100.00
51239;BME280;38154;47.548;18.828;2023-01-28T08:43:43;99017.87;;;1.58;100.00
51239;BME280;38154;47.548;18.828;2023-01-28T08:46:09;99018.28;;;1.69;100.00
51239;BME280;38154;47.548;18.828;2023-01-28T08:48:34;99020.38;;;1.57;100.00
51239;BME280;38154;47.548;18.828;2023-01-28T08:51:02;99017.69;;;1.54;100.00
51239;BME280;38154;47.548;18.828;2023-01-28T08:53:28;99020.25;;;1.54;100.00
51239;BME280;38154;47.548;18.828;2023-01-28T08:55:54;99026.31;;;1.56;100.00
51239;BME280;38154;47.548;18.828;2023-01-28T08:58:20;99029.94;;;1.61;100.00
51239;BME280;38154;47.548;18.828;2023-01-28T09:00:46;99029.78;;;1.56;100.00
51239;BME280;38154;47.548;18.828;2023-01-28T09:03:12;99027.50;;;1.64;100.00
51239;BME280;38154;47.548;18.828;2023-01-28T09:05:37;99033.03;;;1.73;100.00
51239;BME280;38154;47.548;18.828;2023-01-28T09:08:07;99026.06;;;1.71;100.00
51239;BME280;38154;47.548;18.828;2023-01-28T09:10:33;99032.72;;;1.65;100.00
51239;BME280;38154;47.548;18.828;2023-01-28T09:13:04;99029.94;;;1.61;100.00
51239;BME280;38154;47.548;18.828;2023-01-28T09:15:30;99032.53;;;1.82;100.00
51239;BME280;38154;47.548;18.828;2023-01-28T09:17:56;99033.97;;;1.96;100.00
51239;BME280;38154;47.548;18.828;2023-01-28T09:20:22;99036.22;;;1.89;100.00
51239;BME280;38154;47.548;18.828;2023-01-28T09:22:48;99037.03;;;1.88;100.00
51239;BME280;38154;47.548;18.828;2023-01-28T09:25:14;99038.91;;;1.92;100.00
51239;BME280;38154;47.548;18.828;2023-01-28T09:27:39;99038.78;;;2.10;100.00
51239;BME280;38154;47.548;18.828;2023-01-28T09:30:05;99048.69;;;2.00;100.00
51239;BME280;38154;47.548;18.828;2023-01-28T09:32:31;99047.94;;;2.03;100.00
51239;BME280;38154;47.548;18.828;2023-01-28T09:34:57;99052.78;;;1.95;100.00
51239;BME280;38154;47.548;18.828;2023-01-28T09:37:22;99045.31;;;1.80;100.00
51239;BME280;38154;47.548;18.828;2023-01-28T09:39:48;99051.31;;;1.81;100.00
51239;BME280;38154;47.548;18.828;2023-01-28T09:47:31;99046.16;;;1.79;100.00
51239;BME280;38154;47.548;18.828;2023-01-28T09:49:59;99042.75;;;1.80;100.00
51239;BME280;38154;47.548;18.828;2023-01-28T09:52:27;99045.38;;;1.82;100.00
51239;BME280;38154;47.548;18.828;2023-01-28T09:54:57;99041.81;;;1.78;100.00
51239;BME280;38154;47.548;18.828;2023-01-28T09:57:26;99050.84;;;1.69;100.00
51239;BME280;38154;47.548;18.828;2023-01-28T09:59:54;99058.75;;;1.73;100.00
51239;BME280;38154;47.548;18.828;2023-01-28T10:10:31;99044.19;;;1.95;100.00
51239;BME280;38154;47.548;18.828;2023-01-28T10:13:03;99050.94;;;2.14;100.00
51239;BME280;38154;47.548;18.828;2023-01-28T10:15:42;99049.84;;;2.30;100.00
51239;BME280;38154;47.548;18.828;2023-01-28T10:18:12;99046.44;;;2.31;100.00
51239;BME280;38154;47.548;18.828;2023-01-28T10:21:11;99043.88;;;2.53;100.00
51239;BME280;38154;47.548;18.828;2023-01-28T10:23:47;99038.59;;;2.50;100.00
51239;BME280;38154;47.548;18.828;2023-01-28T10:26:24;99041.59;;;2.38;100.00
51239;BME280;38154;47.548;18.828;2023-01-28T10:28:55;99047.91;;;2.47;100.00
51239;BME280;38154;47.548;18.828;2023-01-28T10:31:22;99046.75;;;2.38;100.00
51239;BME280;38154;47.548;18.828;2023-01-28T10:33:47;99045.47;;;2.50;100.00
51239;BME280;38154;47.548;18.828;2023-01-28T10:36:13;99043.78;;;2.29;100.00
51239;BME280;38154;47.548;18.828;2023-01-28T10:38:39;99043.25;;;2.38;100.00
51239;BME280;38154;47.548;18.828;2023-01-28T10:41:05;99044.97;;;2.37;100.00
51239;BME280;38154;47.548;18.828;2023-01-28T10:43:31;99040.81;;;2.41;100.00
51239;BME280;38154;47.548;18.828;2023-01-28T10:46:00;99035.34;;;2.32;100.00
51239;BME280;38154;47.548;18.828;2023-01-28T10:48:35;99040.59;;;2.35;100.00
51239;BME280;38154;47.548;18.828;2023-01-28T10:51:03;99040.34;;;2.51;100.00
51239;BME280;38154;47.548;18.828;2023-01-28T10:53:36;99046.28;;;2.73;100.00
51239;BME280;38154;47.548;18.828;2023-01-28T10:56:03;99046.47;;;2.77;100.00
51239;BME280;38154;47.548;18.828;2023-01-28T10:58:30;99042.03;;;2.97;100.00
51239;BME280;38154;47.548;18.828;2023-01-28T11:01:04;99038.34;;;3.15;100.00
51239;BME280;38154;47.548;18.828;2023-01-28T11:03:31;99050.25;;;3.11;100.00
51239;BME280;38154;47.548;18.828;2023-01-28T11:05:59;99053.22;;;3.22;100.00
51239;BME280;38154;47.548;18.828;2023-01-28T11:08:26;99057.00;;;3.32;100.00
51239;BME280;38154;47.548;18.828;2023-01-28T11:10:52;99051.97;;;3.37;100.00
51239;BME280;38154;47.548;18.828;2023-01-28T11:13:25;99040.97;;;3.41;100.00
51239;BME280;38154;47.548;18.828;2023-01-28T11:15:52;99037.50;;;3.40;100.00
51239;BME280;38154;47.548;18.828;2023-01-28T11:18:21;99044.16;;;3.59;100.00
51239;BME280;38154;47.548;18.828;2023-01-28T11:20:53;99039.50;;;3.75;100.00
51239;BME280;38154;47.548;18.828;2023-01-28T11:23:31;99043.69;;;3.98;100.00
51239;BME280;38154;47.548;18.828;2023-01-28T11:26:02;99039.41;;;4.26;100.00
51239;BME280;38154;47.548;18.828;2023-01-28T11:28:29;99042.66;;;4.20;100.00
51239;BME280;38154;47.548;18.828;2023-01-28T11:30:56;99034.91;;;4.20;100.00
51239;BME280;38154;47.548;18.828;2023-01-28T11:33:25;99034.88;;;4.19;100.00
51239;BME280;38154;47.548;18.828;2023-01-28T11:35:54;99034.59;;;4.09;100.00
51239;BME280;38154;47.548;18.828;2023-01-28T11:38:21;99030.69;;;3.95;100.00
51239;BME280;38154;47.548;18.828;2023-01-28T11:43:16;99031.88;;;3.78;100.00
51239;BME280;38154;47.548;18.828;2023-01-28T11:45:53;99034.03;;;3.91;100.00
51239;BME280;38154;47.548;18.828;2023-01-28T11:51:12;99031.06;;;3.80;100.00
51239;BME280;38154;47.548;18.828;2023-01-28T11:53:45;99025.87;;;4.06;100.00
51239;BME280;38154;47.548;18.828;2023-01-28T11:56:18;99033.31;;;3.97;100.00
51239;BME280;38154;47.548;18.828;2023-01-28T12:09:06;99019.72;;;4.58;100.00
51239;BME280;38154;47.548;18.828;2023-01-28T12:11:39;99020.03;;;4.71;100.00
51239;BME280;38154;47.548;18.828;2023-01-28T12:14:35;99013.44;;;4.80;100.00
51239;BME280;38154;47.548;18.828;2023-01-28T12:19:35;99011.44;;;4.70;100.00
51239;BME280;38154;47.548;18.828;2023-01-28T12:30:13;99012.00;;;4.90;100.00
51239;BME280;38154;47.548;18.828;2023-01-28T12:43:01;99018.47;;;4.17;100.00
51239;BME280;38154;47.548;18.828;2023-01-28T12:47:59;99019.19;;;3.84;100.00
51239;BME280;38154;47.548;18.828;2023-01-28T12:50:30;99017.47;;;3.84;100.00
51239;BME280;38154;47.548;18.828;2023-01-28T12:52:59;99023.34;;;3.80;100.00
51239;BME280;38154;47.548;18.828;2023-01-28T12:55:39;99023.66;;;3.89;100.00
51239;BME280;38154;47.548;18.828;2023-01-28T12:58:11;99027.53;;;3.77;100.00
51239;BME280;38154;47.548;18.828;2023-01-28T13:00:40;99030.59;;;3.92;100.00
51239;BME280;38154;47.548;18.828;2023-01-28T13:05:36;99034.41;;;3.76;100.00
51239;BME280;38154;47.548;18.828;2023-01-28T13:08:09;99034.41;;;3.76;100.00
51239;BME280;38154;47.548;18.828;2023-01-28T13:10:41;99031.88;;;3.78;100.00
51239;BME280;38154;47.548;18.828;2023-01-28T13:13:12;99036.22;;;3.80;100.00
51239;BME280;38154;47.548;18.828;2023-01-28T13:15:40;99030.25;;;3.81;100.00
51239;BME280;38154;47.548;18.828;2023-01-28T13:18:26;99030.06;;;3.75;100.00
51239;BME280;38154;47.548;18.828;2023-01-28T13:20:53;99034.88;;;3.64;100.00
51239;BME280;38154;47.548;18.828;2023-01-28T13:26:10;99044.81;;;3.53;100.00
51239;BME280;38154;47.548;18.828;2023-01-28T13:28:49;99045.75;;;3.56;100.00
51239;BME280;38154;47.548;18.828;2023-01-28T13:31:17;99046.06;;;3.39;100.00
51239;BME280;38154;47.548;18.828;2023-01-28T13:33:45;99050.69;;;3.24;100.00
51239;BME280;38154;47.548;18.828;2023-01-28T13:39:04;99069.38;;;2.94;100.00
51239;BME280;38154;47.548;18.828;2023-01-28T13:41:40;99059.56;;;2.84;100.00
51239;BME280;38154;47.548;18.828;2023-01-28T13:44:26;99067.72;;;2.72;100.00
51239;BME280;38154;47.548;18.828;2023-01-28T13:46:53;99064.91;;;2.66;100.00
51239;BME280;38154;47.548;18.828;2023-01-28T13:54:37;99073.00;;;2.52;100.00
51239;BME280;38154;47.548;18.828;2023-01-28T14:02:41;99085.53;;;2.43;100.00
51239;BME280;38154;47.548;18.828;2023-01-28T14:18:17;99085.97;;;2.55;100.00
51239;BME280;38154;47.548;18.828;2023-01-28T14:20:46;99092.00;;;2.56;100.00
51239;BME280;38154;47.548;18.828;2023-01-28T14:23:16;99091.59;;;2.45;100.00
51239;BME280;38154;47.548;18.828;2023-01-28T14:29:11;99094.69;;;2.36;100.00
51239;BME280;38154;47.548;18.828;2023-01-28T14:31:24;99098.94;;;2.36;100.00
51239;BME280;38154;47.548;18.828;2023-01-28T14:33:51;99104.47;;;2.45;100.00
51239;BME280;38154;47.548;18.828;2023-01-28T14:36:17;99106.91;;;2.42;100.00
51239;BME280;38154;47.548;18.828;2023-01-28T14:38:43;99106.59;;;2.34;100.00
51239;BME280;38154;47.548;18.828;2023-01-28T14:41:10;99103.09;;;2.32;100.00
51239;BME280;38154;47.548;18.828;2023-01-28T14:43:43;99101.41;;;2.33;100.00